Time;durP1;ratioP1;P1;durP2;ratioP2;P2;SDS_P1;SDS_P2;PMS_P1;PMS_P2;Temp;Humidity;BMP_temperature;BMP_pressure;BME280_temperature;BME280_humidity;BME280_pressure;Samples;Min_cycle;Max_cycle;Signal;HPM_P1;HPM_P2
2023/02/07 00:00:40;;;;;;;23.52;9.85;;;2.80;99.90;;;;;;4994283;28;20108;-72
2023/02/07 00:03:06;;;;;;;23.48;10.25;;;2.70;99.90;;;;;;4993863;28;20046;-72
2023/02/07 00:05:31;;;;;;;19.75;10.23;;;2.70;99.90;;;;;;4994003;28;20046;-72
2023/02/07 00:07:57;;;;;;;21.05;9.25;;;2.70;99.90;;;;;;4993991;28;20038;-72
2023/02/07 00:10:22;;;;;;;22.00;11.32;;;2.60;99.90;;;;;;4993959;28;20049;-72
2023/02/07 00:12:48;;;;;;;22.83;9.98;;;2.70;99.90;;;;;;4992330;28;20050;-72
2023/02/07 00:15:15;;;;;;;19.95;9.40;;;2.60;99.90;;;;;;4993641;28;20045;-72
2023/02/07 00:17:40;;;;;;;23.73;10.40;;;2.60;99.90;;;;;;4993944;28;20117;-72
2023/02/07 00:20:06;;;;;;;21.10;9.35;;;2.60;99.90;;;;;;4993220;28;20124;-72
2023/02/07 00:22:32;;;;;;;21.80;9.63;;;2.70;99.90;;;;;;4992474;28;20419;-72
2023/02/07 00:24:57;;;;;;;19.33;9.73;;;2.60;99.90;;;;;;4993581;28;20042;-72
2023/02/07 00:27:23;;;;;;;19.95;10.15;;;2.50;99.90;;;;;;4993405;28;20117;-72
2023/02/07 00:29:49;;;;;;;20.73;9.32;;;2.60;99.90;;;;;;4993698;28;20643;-72
2023/02/07 00:32:14;;;;;;;20.90;10.75;;;2.60;99.90;;;;;;4993101;28;20039;-72
2023/02/07 00:34:40;;;;;;;24.15;10.05;;;2.60;99.90;;;;;;4994789;28;20042;-72
2023/02/07 00:37:06;;;;;;;23.63;9.60;;;2.40;99.90;;;;;;5010484;28;20044;-72
2023/02/07 00:39:32;;;;;;;22.17;9.80;;;2.30;99.90;;;;;;5012869;28;20057;-72
2023/02/07 00:41:58;;;;;;;24.63;10.40;;;2.50;99.90;;;;;;5012510;28;20038;-72
2023/02/07 00:44:23;;;;;;;28.00;10.65;;;2.30;99.90;;;;;;5012920;28;20042;-72
2023/02/07 00:46:49;;;;;;;27.55;11.75;;;2.40;99.90;;;;;;5012939;28;20049;-72
2023/02/07 00:49:14;;;;;;;25.40;10.82;;;2.20;99.90;;;;;;5012922;28;20515;-72
2023/02/07 00:51:40;;;;;;;21.92;11.35;;;2.20;99.90;;;;;;5012698;28;20487;-72
2023/02/07 00:54:06;;;;;;;26.80;9.60;;;2.10;99.90;;;;;;5011153;28;20045;-72
2023/02/07 00:56:32;;;;;;;19.50;9.18;;;2.10;99.90;;;;;;5012534;28;20407;-72
2023/02/07 00:58:58;;;;;;;21.50;10.18;;;2.20;99.90;;;;;;5011600;28;20088;-72
2023/02/07 01:01:26;;;;;;;18.73;10.35;;;2.30;99.90;;;;;;5011609;28;20045;-72
2023/02/07 01:03:52;;;;;;;17.98;10.48;;;2.00;99.90;;;;;;5011002;28;20096;-72
2023/02/07 01:06:17;;;;;;;24.02;10.70;;;2.30;99.90;;;;;;5012506;28;20046;-72
2023/02/07 01:08:43;;;;;;;22.27;10.05;;;2.00;99.90;;;;;;5012448;28;20088;-72
2023/02/07 01:11:12;;;;;;;24.67;10.95;;;2.10;99.90;;;;;;5012311;28;20058;-72
2023/02/07 01:13:42;;;;;;;19.33;9.35;;;2.20;99.90;;;;;;5011920;28;20100;-72
2023/02/07 01:16:15;;;;;;;19.98;10.70;;;2.10;99.90;;;;;;5011056;28;20506;-72
2023/02/07 01:18:41;;;;;;;20.77;10.15;;;2.10;99.90;;;;;;5011331;28;20045;-72
2023/02/07 01:21:13;;;;;;;20.95;10.73;;;1.80;99.90;;;;;;5012268;28;20100;-72
2023/02/07 01:23:39;;;;;;;21.95;10.63;;;2.00;99.90;;;;;;5010425;28;20625;-72
2023/02/07 01:26:05;;;;;;;19.55;11.18;;;1.80;99.90;;;;;;5012366;28;20109;-72
2023/02/07 01:28:30;;;;;;;20.58;9.32;;;2.00;99.90;;;;;;5012177;28;20403;-72
2023/02/07 01:30:56;;;;;;;25.20;10.27;;;2.00;99.90;;;;;;5012052;28;20077;-72
2023/02/07 01:33:21;;;;;;;18.77;10.80;;;1.80;99.90;;;;;;5011788;28;20129;-72
2023/02/07 01:35:47;;;;;;;27.08;11.43;;;1.90;99.90;;;;;;5012071;28;20037;-72
2023/02/07 01:38:12;;;;;;;21.63;9.75;;;1.90;99.90;;;;;;5011968;28;20038;-72
2023/02/07 01:40:39;;;;;;;19.73;9.15;;;1.90;99.90;;;;;;5010957;28;20046;-72
2023/02/07 01:43:04;;;;;;;17.58;9.77;;;1.90;99.90;;;;;;5011493;28;20050;-72
2023/02/07 01:45:36;;;;;;;24.73;9.32;;;1.90;99.90;;;;;;5010651;28;20454;-72
2023/02/07 01:48:18;;;;;;;19.83;9.48;;;1.80;99.90;;;;;;5010688;28;20073;-72
2023/02/07 01:50:47;;;;;;;21.60;10.77;;;1.60;99.90;;;;;;5008553;28;20046;-72
2023/02/07 01:53:15;;;;;;;28.73;10.75;;;1.70;99.90;;;;;;5010063;28;20532;-72
2023/02/07 01:55:42;;;;;;;20.58;9.45;;;1.50;99.90;;;;;;5011683;28;20046;-72
2023/02/07 01:58:08;;;;;;;19.85;9.50;;;1.70;99.90;;;;;;5009306;28;20038;-72
2023/02/07 02:00:35;;;;;;;17.45;9.40;;;1.60;99.90;;;;;;5003291;28;20042;-72
2023/02/07 02:03:01;;;;;;;20.95;10.82;;;1.50;99.90;;;;;;4991733;28;20124;-73
2023/02/07 02:05:29;;;;;;;22.17;10.05;;;1.70;99.90;;;;;;4992416;28;20039;-73
2023/02/07 02:07:55;;;;;;;22.30;11.10;;;1.50;99.90;;;;;;4991021;28;20046;-72
2023/02/07 02:10:22;;;;;;;17.42;10.48;;;1.40;99.90;;;;;;4991321;28;20039;-72
2023/02/07 02:13:05;;;;;;;21.30;9.63;;;1.60;99.90;;;;;;4991692;28;20133;-72
2023/02/07 02:15:34;;;;;;;22.15;9.88;;;1.60;99.90;;;;;;4992057;28;20451;-72
2023/02/07 02:18:17;;;;;;;23.17;9.93;;;1.30;99.90;;;;;;4992231;28;20030;-72
2023/02/07 02:21:24;;;;;;;20.60;9.55;;;1.30;99.90;;;;;;4992173;28;20034;-73
2023/02/07 02:24:07;;;;;;;23.17;9.50;;;1.50;99.90;;;;;;4991559;28;20041;-72
2023/02/07 02:26:59;;;;;;;23.40;10.68;;;1.30;99.90;;;;;;4992108;28;20038;-72
2023/02/07 02:29:58;;;;;;;18.17;9.75;;;1.30;99.90;;;;;;4992020;28;20069;-72
2023/02/07 02:32:58;;;;;;;19.73;11.05;;;1.50;99.90;;;;;;4991474;28;20046;-72
2023/02/07 02:35:44;;;;;;;21.83;11.52;;;1.50;99.90;;;;;;4992039;28;20034;-72
2023/02/07 02:38:13;;;;;;;23.13;10.75;;;1.30;99.90;;;;;;4995620;28;20566;-72
2023/02/07 02:41:16;;;;;;;21.02;10.57;;;1.20;99.90;;;;;;4994190;28;20048;-72
2023/02/07 02:43:49;;;;;;;27.60;9.85;;;1.40;99.90;;;;;;4993852;28;20105;-72
2023/02/07 02:46:23;;;;;;;20.55;9.80;;;1.20;99.90;;;;;;4994254;28;20050;-72
2023/02/07 02:48:49;;;;;;;18.20;9.95;;;1.40;99.90;;;;;;4994193;28;20056;-73
2023/02/07 02:51:15;;;;;;;19.90;9.85;;;1.10;99.90;;;;;;4995585;28;20096;-72
2023/02/07 02:53:53;;;;;;;20.45;10.70;;;1.10;99.90;;;;;;4995366;28;20411;-72
2023/02/07 02:57:02;;;;;;;22.05;10.27;;;1.20;99.90;;;;;;4994202;28;20046;-72
2023/02/07 02:59:39;;;;;;;27.38;11.05;;;1.10;99.90;;;;;;4995303;28;20088;-72
2023/02/07 03:02:27;;;;;;;23.13;10.45;;;1.10;99.90;;;;;;4995065;28;20121;-73
2023/02/07 03:05:01;;;;;;;25.60;11.38;;;1.00;99.90;;;;;;4993860;28;20124;-72
2023/02/07 03:07:29;;;;;;;22.83;12.25;;;1.10;99.90;;;;;;4994159;28;20046;-72
2023/02/07 03:10:16;;;;;;;23.20;12.90;;;1.10;99.90;;;;;;4993755;28;20076;-73
2023/02/07 03:12:52;;;;;;;23.05;11.82;;;1.10;99.90;;;;;;4993439;28;20065;-72
2023/02/07 03:15:45;;;;;;;27.67;11.90;;;1.30;99.90;;;;;;4993825;28;20467;-72
2023/02/07 03:18:38;;;;;;;26.42;12.93;;;1.30;99.90;;;;;;4994874;28;20096;-72
2023/02/07 03:21:34;;;;;;;21.50;12.10;;;1.00;99.90;;;;;;4995051;28;20038;-72
2023/02/07 03:24:03;;;;;;;28.42;13.98;;;1.10;99.90;;;;;;4993166;28;20088;-72
2023/02/07 03:26:29;;;;;;;38.17;15.30;;;1.00;99.90;;;;;;4994670;28;20557;-72
2023/02/07 03:28:57;;;;;;;28.23;13.27;;;1.10;99.90;;;;;;4993571;28;20089;-73
2023/02/07 03:31:25;;;;;;;31.27;13.40;;;1.30;99.90;;;;;;4994841;28;20038;-72
2023/02/07 03:33:57;;;;;;;26.08;12.93;;;1.20;99.90;;;;;;4993317;28;20050;-72
2023/02/07 03:37:03;;;;;;;26.50;12.52;;;1.10;99.90;;;;;;4994687;28;20038;-72
2023/02/07 03:39:29;;;;;;;27.58;14.70;;;1.00;99.90;;;;;;4983728;28;20061;-72
2023/02/07 03:42:02;;;;;;;21.90;11.35;;;1.20;99.90;;;;;;4994287;28;20045;-72
2023/02/07 03:44:29;;;;;;;;;;;1.30;99.90;;;;;;4994929;28;20058;-72
2023/02/07 03:46:56;;;;;;;21.30;10.60;;;1.00;99.90;;;;;;4993241;28;20063;-72
2023/02/07 03:49:21;;;;;;;21.10;13.05;;;1.10;99.90;;;;;;4994296;28;20595;-72
2023/02/07 03:51:47;;;;;;;26.83;12.48;;;1.10;99.90;;;;;;4994392;28;20030;-72
2023/02/07 03:54:12;;;;;;;26.65;13.05;;;1.10;99.90;;;;;;4993955;28;20105;-72
2023/02/07 03:56:38;;;;;;;24.27;12.25;;;0.90;99.90;;;;;;5010895;28;20042;-72
2023/02/07 03:59:04;;;;;;;26.17;11.63;;;0.80;99.90;;;;;;5013789;28;20049;-72
2023/02/07 04:01:30;;;;;;;23.35;12.10;;;0.90;99.90;;;;;;5013712;28;20042;-72
2023/02/07 04:03:55;;;;;;;23.35;12.52;;;1.00;99.90;;;;;;5013109;28;20125;-72
2023/02/07 04:06:21;;;;;;;30.77;13.45;;;0.90;99.90;;;;;;5013756;28;20038;-72
2023/02/07 04:08:47;;;;;;;25.88;13.18;;;1.10;99.90;;;;;;5013603;28;20038;-72
2023/02/07 04:11:12;;;;;;;21.90;13.45;;;1.20;99.90;;;;;;5013561;28;20046;-72
2023/02/07 04:13:38;;;;;;;30.27;13.45;;;1.10;99.90;;;;;;5012963;28;20141;-72
2023/02/07 04:16:05;;;;;;;26.52;13.13;;;1.10;99.90;;;;;;5013491;28;20053;-72
2023/02/07 04:18:31;;;;;;;23.65;13.23;;;1.00;99.90;;;;;;5008491;28;20041;-72
2023/02/07 04:21:02;;;;;;;23.35;13.38;;;1.10;99.90;;;;;;5012808;28;20046;-72
2023/02/07 04:23:28;;;;;;;24.65;14.40;;;0.80;99.90;;;;;;5009037;28;20449;-73
2023/02/07 04:25:53;;;;;;;25.98;14.23;;;0.80;99.90;;;;;;4994071;28;20169;-72
2023/02/07 04:28:19;;;;;;;30.45;14.75;;;0.90;99.90;;;;;;4993674;28;20499;-72
2023/02/07 04:30:45;;;;;;;26.42;14.35;;;0.80;99.90;;;;;;4992553;28;20050;-72
2023/02/07 04:33:10;;;;;;;21.90;13.48;;;0.90;99.90;;;;;;4993126;28;20549;-72
2023/02/07 04:35:35;;;;;;;22.95;13.98;;;0.90;99.90;;;;;;4993584;28;20042;-73
2023/02/07 04:38:01;;;;;;;27.60;14.52;;;0.90;99.90;;;;;;4993583;28;20046;-72
2023/02/07 04:40:27;;;;;;;26.95;14.63;;;0.80;99.90;;;;;;4993528;28;20034;-72
2023/02/07 04:42:52;;;;;;;31.25;15.43;;;1.10;99.90;;;;;;4991631;28;20569;-72
2023/02/07 04:45:18;;;;;;;28.15;14.85;;;0.90;99.90;;;;;;4992299;28;20650;-72
2023/02/07 04:47:43;;;;;;;30.77;15.27;;;0.80;99.90;;;;;;4992178;28;20054;-72
2023/02/07 04:50:09;;;;;;;31.48;15.98;;;0.70;99.90;;;;;;4993436;28;20092;-72
2023/02/07 04:52:35;;;;;;;30.75;15.18;;;1.00;99.90;;;;;;4992936;28;20042;-72
2023/02/07 04:55:01;;;;;;;27.80;14.48;;;0.80;99.90;;;;;;4993180;28;20117;-72
2023/02/07 04:57:26;;;;;;;32.28;15.82;;;0.70;99.90;;;;;;4993037;28;20117;-73
2023/02/07 04:59:52;;;;;;;26.23;15.10;;;0.70;99.90;;;;;;4992443;28;20046;-72
2023/02/07 05:02:17;;;;;;;25.42;15.05;;;0.90;99.90;;;;;;4992562;28;20072;-73
2023/02/07 05:04:43;;;;;;;31.17;15.50;;;0.80;99.90;;;;;;4993071;28;20103;-73
2023/02/07 05:07:08;;;;;;;33.83;17.02;;;0.80;99.90;;;;;;4992986;28;20034;-72
2023/02/07 05:09:34;;;;;;;31.95;15.80;;;0.80;99.90;;;;;;4992919;28;20396;-72
2023/02/07 05:11:59;;;;;;;29.00;16.58;;;0.90;99.90;;;;;;4992444;28;20462;-72
2023/02/07 05:14:25;;;;;;;31.25;15.43;;;0.70;99.90;;;;;;4992818;28;20113;-72
2023/02/07 05:16:51;;;;;;;31.55;15.98;;;0.90;99.90;;;;;;4992574;28;20582;-72
2023/02/07 05:19:16;;;;;;;29.05;16.33;;;0.80;99.90;;;;;;4992750;28;20046;-72
2023/02/07 05:21:42;;;;;;;34.42;14.90;;;0.60;99.90;;;;;;4992482;28;20129;-72
2023/02/07 05:24:07;;;;;;;34.97;18.50;;;0.80;99.90;;;;;;4992440;28;20042;-72
2023/02/07 05:26:33;;;;;;;29.50;15.43;;;0.80;99.90;;;;;;4992629;28;20042;-73
2023/02/07 05:28:58;;;;;;;33.08;15.20;;;0.70;99.90;;;;;;4992741;28;20035;-72
2023/02/07 05:33:02;;;;;;;29.48;15.43;;;0.70;99.90;;;;;;4992522;28;20045;-72
2023/02/07 05:34:09;;;;;;;36.13;16.05;;;0.70;99.90;;;;;;4992112;28;20100;-72
2023/02/07 05:36:35;;;;;;;27.83;15.35;;;0.50;99.90;;;;;;4992548;28;20125;-72
2023/02/07 05:39:01;;;;;;;34.85;16.80;;;0.70;99.90;;;;;;4992482;28;20058;-72
2023/02/07 05:41:26;;;;;;;33.25;16.20;;;0.70;99.90;;;;;;4992428;28;20058;-73
2023/02/07 05:43:52;;;;;;;29.90;17.00;;;0.60;99.90;;;;;;4991906;28;20050;-73
2023/02/07 05:46:17;;;;;;;38.88;17.77;;;0.70;99.90;;;;;;4991077;28;20042;-72
2023/02/07 05:48:43;;;;;;;35.80;16.00;;;0.70;99.90;;;;;;4991056;28;20061;-73
2023/02/07 05:51:08;;;;;;;39.58;17.98;;;0.60;99.90;;;;;;4992377;28;20049;-72
2023/02/07 05:53:34;;;;;;;33.45;18.30;;;0.70;99.90;;;;;;4991918;28;20088;-71
2023/02/07 05:55:59;;;;;;;40.00;17.95;;;0.70;99.90;;;;;;4992198;28;20197;-72
2023/02/07 05:58:25;;;;;;;28.20;15.52;;;0.50;99.90;;;;;;4992028;28;20049;-72
2023/02/07 06:00:51;;;;;;;36.30;16.80;;;0.50;99.90;;;;;;4992291;28;20049;-71
2023/02/07 06:03:16;;;;;;;33.13;17.48;;;0.60;99.90;;;;;;4991802;28;20060;-72
2023/02/07 06:05:42;;;;;;;28.70;16.48;;;0.60;99.90;;;;;;4992124;28;20043;-71
2023/02/07 06:08:07;;;;;;;32.80;17.63;;;0.70;99.90;;;;;;4990664;28;20113;-71
2023/02/07 06:10:33;;;;;;;34.00;16.60;;;0.40;99.90;;;;;;4990826;28;20042;-71
2023/02/07 06:12:58;;;;;;;33.67;17.45;;;0.50;99.90;;;;;;4994204;28;20043;-72
2023/02/07 06:15:24;;;;;;;31.70;16.92;;;0.40;99.90;;;;;;4995871;28;20125;-72
2023/02/07 06:17:49;;;;;;;33.25;16.65;;;0.50;99.90;;;;;;4996324;28;20130;-71
2023/02/07 06:20:15;;;;;;;37.17;17.55;;;0.60;99.90;;;;;;5006646;28;20109;-71
2023/02/07 06:22:41;;;;;;;33.70;18.65;;;0.40;99.90;;;;;;5013739;28;20037;-72
2023/02/07 06:25:10;;;;;;;34.83;17.45;;;0.40;99.90;;;;;;5010466;28;20452;-71
2023/02/07 06:27:37;;;;;;;32.67;17.63;;;0.40;99.90;;;;;;5000240;28;20088;-72
2023/02/07 06:30:03;;;;;;;34.13;16.80;;;0.60;99.90;;;;;;5010856;28;20030;-72
2023/02/07 06:32:29;;;;;;;32.35;17.25;;;0.50;99.90;;;;;;4995224;28;20538;-72
2023/02/07 06:34:54;;;;;;;36.50;17.52;;;0.50;99.90;;;;;;4995639;28;20038;-71
2023/02/07 06:37:20;;;;;;;33.05;17.77;;;0.40;99.90;;;;;;4995900;28;20072;-72
2023/02/07 06:39:45;;;;;;;36.78;18.55;;;0.40;99.90;;;;;;4994440;28;20046;-72
2023/02/07 06:42:11;;;;;;;28.15;16.23;;;0.50;99.90;;;;;;4994988;28;20131;-72
2023/02/07 06:44:36;;;;;;;32.42;16.80;;;0.40;99.90;;;;;;4995588;28;20046;-71
2023/02/07 06:47:03;;;;;;;31.27;16.83;;;0.40;99.90;;;;;;4995524;28;20050;-71
2023/02/07 06:49:28;;;;;;;30.70;17.40;;;0.50;99.90;;;;;;4995322;28;20129;-71
2023/02/07 06:51:54;;;;;;;34.17;19.52;;;0.30;99.90;;;;;;4995108;28;20133;-72
2023/02/07 06:54:19;;;;;;;30.98;18.58;;;0.50;99.90;;;;;;4995302;28;20039;-71
2023/02/07 06:56:45;;;;;;;34.55;16.75;;;0.50;99.90;;;;;;4993946;28;20042;-71
2023/02/07 06:59:10;;;;;;;36.65;18.38;;;0.40;99.90;;;;;;4995360;28;20097;-71
2023/02/07 07:01:36;;;;;;;32.78;17.63;;;0.20;99.90;;;;;;4995188;28;20045;-71
2023/02/07 07:04:02;;;;;;;27.85;16.25;;;0.20;99.90;;;;;;4994565;28;20484;-71
2023/02/07 07:06:27;;;;;;;31.58;18.70;;;0.40;99.90;;;;;;4995086;28;20043;-72
2023/02/07 07:08:53;;;;;;;33.35;17.13;;;0.20;99.90;;;;;;4977389;28;20070;-71
2023/02/07 07:11:19;;;;;;;31.02;17.75;;;0.40;99.90;;;;;;4994955;28;20061;-72
2023/02/07 07:13:45;;;;;;;32.33;17.17;;;0.40;99.90;;;;;;4994529;28;20050;-72
2023/02/07 07:16:11;;;;;;;36.75;18.40;;;0.40;99.90;;;;;;4993638;28;20061;-71
2023/02/07 07:18:37;;;;;;;39.95;19.10;;;0.40;99.90;;;;;;4994961;28;20038;-72
2023/02/07 07:21:04;;;;;;;36.85;19.10;;;0.40;99.90;;;;;;4993483;28;20133;-72
2023/02/07 07:23:29;;;;;;;38.92;18.10;;;0.10;99.90;;;;;;4992439;28;20411;-72
2023/02/07 07:25:55;;;;;;;32.40;18.17;;;0.30;99.90;;;;;;4993717;28;20046;-71
2023/02/07 07:28:20;;;;;;;32.45;17.73;;;0.10;99.90;;;;;;4994917;28;20038;-71
2023/02/07 07:30:46;;;;;;;33.38;18.38;;;0.20;99.90;;;;;;4994837;28;20599;-72
2023/02/07 07:33:11;;;;;;;39.22;19.52;;;0.10;99.90;;;;;;4993098;28;20070;-71
2023/02/07 07:35:37;;;;;;;34.97;17.42;;;0.10;99.90;;;;;;4994412;28;20039;-71
2023/02/07 07:38:02;;;;;;;34.00;17.75;;;0.40;99.90;;;;;;4994287;28;20056;-70
2023/02/07 07:40:28;;;;;;;32.58;16.98;;;0.00;99.90;;;;;;4994308;28;20414;-71
2023/02/07 07:42:54;;;;;;;30.67;17.85;;;0.10;99.90;;;;;;4993897;28;20034;-70
2023/02/07 07:45:19;;;;;;;31.15;17.75;;;0.10;99.90;;;;;;4994172;28;20046;-71
2023/02/07 07:47:45;;;;;;;39.30;17.45;;;0.30;99.90;;;;;;4994401;28;20046;-71
2023/02/07 07:50:10;;;;;;;32.20;18.58;;;0.40;99.90;;;;;;4994366;28;20113;-70
2023/02/07 07:52:36;;;;;;;30.75;17.73;;;0.20;99.90;;;;;;4993943;28;20096;-70
2023/02/07 07:55:02;;;;;;;29.63;18.83;;;0.50;99.90;;;;;;4994103;28;20080;-71
2023/02/07 07:57:28;;;;;;;30.85;17.77;;;0.60;99.90;;;;;;5021929;28;20033;-70
2023/02/07 07:59:54;;;;;;;30.42;16.90;;;0.70;99.90;;;;;;5032609;28;20037;-70
2023/02/07 08:02:20;;;;;;;36.83;18.88;;;0.80;99.90;;;;;;5033251;28;20037;-71
2023/02/07 08:04:45;;;;;;;32.45;17.02;;;0.90;99.90;;;;;;5033405;28;20051;-70
2023/02/07 08:07:11;;;;;;;38.47;19.63;;;0.90;99.90;;;;;;5032072;28;20043;-71
2023/02/07 08:09:36;;;;;;;31.40;16.98;;;1.20;99.90;;;;;;5023413;28;20402;-71
2023/02/07 08:12:02;;;;;;;29.13;16.27;;;1.40;99.90;;;;;;5023012;28;20133;-71
2023/02/07 08:14:28;;;;;;;27.48;16.52;;;1.50;99.90;;;;;;5022044;28;20410;-71
2023/02/07 08:16:53;;;;;;;29.15;17.33;;;1.60;99.90;;;;;;5024669;28;20554;-71
2023/02/07 08:19:19;;;;;;;28.50;17.30;;;1.50;99.90;;;;;;5033101;28;20037;-70
2023/02/07 08:21:44;;;;;;;28.83;17.02;;;1.60;99.90;;;;;;5032898;28;20117;-70
2023/02/07 08:24:10;;;;;;;26.85;15.70;;;1.70;99.90;;;;;;5032606;28;20391;-71
2023/02/07 08:26:35;;;;;;;32.30;18.50;;;1.80;99.90;;;;;;5031848;28;20405;-70
2023/02/07 08:29:01;;;;;;;26.00;15.27;;;2.00;99.90;;;;;;5032871;28;20037;-72
2023/02/07 08:31:26;;;;;;;32.45;16.88;;;2.10;99.90;;;;;;5031568;28;20037;-72
2023/02/07 08:33:53;;;;;;;27.58;17.13;;;2.10;99.90;;;;;;5031649;28;20073;-71
2023/02/07 08:36:18;;;;;;;35.15;18.65;;;2.20;99.90;;;;;;5031534;28;20049;-71
2023/02/07 08:38:44;;;;;;;31.10;17.65;;;2.00;99.90;;;;;;5031494;28;20049;-71
2023/02/07 08:41:09;;;;;;;30.05;18.40;;;2.30;99.90;;;;;;5032675;28;20042;-71
2023/02/07 08:43:36;;;;;;;31.13;18.20;;;2.20;99.90;;;;;;5032399;28;20048;-71
2023/02/07 08:46:02;;;;;;;31.05;17.35;;;2.10;99.90;;;;;;5031476;28;20049;-71
2023/02/07 08:48:28;;;;;;;35.53;21.98;;;2.20;99.90;;;;;;5031319;28;20050;-71
2023/02/07 08:50:54;;;;;;;34.95;21.88;;;2.20;99.90;;;;;;5032592;28;20056;-71
2023/02/07 08:53:19;;;;;;;31.58;19.20;;;2.40;99.90;;;;;;5030818;28;20068;-71
2023/02/07 08:55:45;;;;;;;28.60;16.75;;;2.40;99.90;;;;;;5032297;28;20060;-71
2023/02/07 08:58:11;;;;;;;31.30;17.90;;;2.20;99.90;;;;;;5032365;28;20037;-71
2023/02/07 09:00:36;;;;;;;27.60;17.02;;;2.30;99.90;;;;;;5032418;28;20034;-71
2023/02/07 09:03:03;;;;;;;29.42;17.83;;;2.30;99.90;;;;;;5032049;28;20040;-72
2023/02/07 09:05:32;;;;;;;29.85;17.02;;;2.10;99.90;;;;;;5032295;28;20644;-72
2023/02/07 09:07:59;;;;;;;31.65;17.98;;;2.10;99.90;;;;;;5032271;28;20041;-71
2023/02/07 09:10:24;;;;;;;26.38;15.73;;;2.30;99.90;;;;;;5032317;28;20090;-72
2023/02/07 09:12:50;;;;;;;32.40;15.40;;;2.20;99.90;;;;;;5031849;28;20038;-71
2023/02/07 09:15:15;;;;;;;29.30;15.82;;;2.30;99.90;;;;;;5032207;28;20041;-72
2023/02/07 09:17:41;;;;;;;29.10;16.23;;;2.30;99.90;;;;;;5032346;28;20045;-71
2023/02/07 09:20:07;;;;;;;26.50;15.90;;;2.10;99.90;;;;;;5032184;28;20045;-71
2023/02/07 09:23:16;;;;;;;23.40;15.48;;;2.30;99.90;;;;;;5031825;28;20701;-72
2023/02/07 09:25:18;;;;;;;27.15;16.25;;;2.40;99.90;;;;;;5030583;28;20079;-71
2023/02/07 09:27:43;;;;;;;29.75;16.98;;;2.40;99.90;;;;;;5031004;28;20409;-71
2023/02/07 09:30:09;;;;;;;30.65;16.88;;;2.10;99.90;;;;;;5031922;28;20494;-71
2023/02/07 09:32:35;;;;;;;24.15;15.40;;;2.20;99.90;;;;;;5030119;28;20501;-71
2023/02/07 09:35:00;;;;;;;23.88;15.63;;;2.20;99.90;;;;;;5031804;28;20033;-70
2023/02/07 09:37:26;;;;;;;22.92;13.73;;;2.20;99.90;;;;;;5031675;28;20038;-70
2023/02/07 09:39:51;;;;;;;23.20;14.18;;;2.20;99.90;;;;;;5031917;28;20084;-70
2023/02/07 09:42:40;;;;;;;32.85;20.35;;;2.20;99.90;;;;;;5031626;28;20117;-70
2023/02/07 09:45:08;;;;;;;24.30;16.02;;;2.30;99.90;;;;;;5031294;28;20502;-70
2023/02/07 09:47:39;;;;;;;24.70;14.88;;;2.20;99.90;;;;;;5031654;28;20413;-71
2023/02/07 09:50:21;;;;;;;23.60;14.88;;;2.40;99.90;;;;;;5031894;28;20471;-70
2023/02/07 09:52:58;;;;;;;22.60;14.30;;;2.40;99.90;;;;;;5031435;28;20524;-70
2023/02/07 09:55:31;;;;;;;22.60;13.70;;;2.30;99.90;;;;;;5031669;28;20045;-70
2023/02/07 09:58:02;;;;;;;21.25;13.75;;;2.40;99.90;;;;;;5031616;28;20068;-70
2023/02/07 10:00:32;;;;;;;25.52;14.45;;;2.30;99.90;;;;;;5031639;28;20038;-70
2023/02/07 10:03:04;;;;;;;22.83;13.32;;;2.40;99.90;;;;;;5031466;28;20065;-71
2023/02/07 10:05:41;;;;;;;26.08;15.43;;;2.40;99.90;;;;;;5031672;28;20532;-71
2023/02/07 10:08:12;;;;;;;23.50;14.32;;;2.50;99.90;;;;;;5024325;28;20092;-71
2023/02/07 10:11:11;;;;;;;19.75;13.98;;;2.40;99.90;;;;;;5002557;28;20054;-70
2023/02/07 10:13:59;;;;;;;22.33;14.02;;;2.30;99.90;;;;;;5008463;28;20546;-70
2023/02/07 10:16:33;;;;;;;25.02;13.35;;;2.40;99.90;;;;;;4996264;28;20046;-70
2023/02/07 10:19:08;;;;;;;20.88;13.13;;;2.50;99.90;;;;;;5003847;28;20049;-70
2023/02/07 10:22:07;;;;;;;23.88;14.38;;;2.40;99.90;;;;;;4995021;28;20038;-70
2023/02/07 10:24:41;;;;;;;22.13;13.60;;;2.40;99.90;;;;;;4991974;28;20423;-70
2023/02/07 10:27:14;;;;;;;21.80;13.93;;;2.50;99.90;;;;;;4990702;28;20050;-70
2023/02/07 10:29:40;;;;;;;22.33;12.70;;;2.40;99.90;;;;;;5008529;28;20056;-70
2023/02/07 10:32:34;;;;;;;25.83;13.18;;;2.50;99.90;;;;;;4998447;28;20500;-70
2023/02/07 10:35:13;;;;;;;30.15;15.35;;;2.70;99.90;;;;;;4989388;28;20046;-70
2023/02/07 10:37:40;;;;;;;20.77;13.55;;;2.70;99.90;;;;;;4990543;28;20050;-71
2023/02/07 10:40:33;;;;;;;22.33;11.95;;;2.60;99.90;;;;;;5009925;28;20056;-71
2023/02/07 10:43:19;;;;;;;22.38;13.32;;;2.60;99.90;;;;;;4991632;28;20061;-71
2023/02/07 10:45:45;;;;;;;21.73;14.52;;;2.80;99.90;;;;;;4991798;28;20050;-71
2023/02/07 10:48:15;;;;;;;25.55;14.35;;;2.70;99.90;;;;;;4990450;28;20038;-71
2023/02/07 10:50:41;;;;;;;24.83;15.05;;;2.70;99.90;;;;;;4990719;28;20437;-72
2023/02/07 10:53:07;;;;;;;27.10;14.23;;;2.80;99.90;;;;;;4990347;28;20047;-71
2023/02/07 10:55:38;;;;;;;21.40;13.57;;;2.90;99.90;;;;;;4991740;28;20083;-71
2023/02/07 10:58:03;;;;;;;25.33;14.90;;;2.80;99.90;;;;;;4992743;28;20466;-71
2023/02/07 11:00:32;;;;;;;24.42;14.85;;;3.00;99.90;;;;;;4995277;28;20070;-71
2023/02/07 11:03:02;;;;;;;24.65;15.18;;;2.90;99.90;;;;;;5013168;28;20034;-71
2023/02/07 11:05:36;;;;;;;27.95;13.45;;;2.90;99.90;;;;;;5005741;28;20042;-71
2023/02/07 11:08:13;;;;;;;29.33;14.65;;;3.10;99.90;;;;;;4994054;28;20042;-72
2023/02/07 11:10:41;;;;;;;24.40;14.85;;;3.20;99.90;;;;;;4995082;28;20566;-72
2023/02/07 11:13:22;;;;;;;24.33;14.27;;;3.10;99.90;;;;;;4993254;28;20026;-72
2023/02/07 11:15:58;;;;;;;27.20;14.52;;;3.10;99.90;;;;;;4995289;28;20043;-72
2023/02/07 11:18:36;;;;;;;24.58;14.48;;;3.20;99.90;;;;;;4995073;28;20034;-71
2023/02/07 11:21:03;;;;;;;26.08;14.13;;;3.20;99.90;;;;;;4994855;28;20511;-71
2023/02/07 11:23:29;;;;;;;24.83;14.63;;;3.30;99.90;;;;;;4994330;28;20122;-71
2023/02/07 11:25:56;;;;;;;27.08;15.50;;;3.20;99.90;;;;;;4994836;28;20033;-71
2023/02/07 11:28:29;;;;;;;27.55;15.75;;;3.20;99.90;;;;;;4994835;28;20034;-71
2023/02/07 11:31:05;;;;;;;29.60;14.57;;;3.20;99.90;;;;;;4994869;28;20125;-72
2023/02/07 11:33:35;;;;;;;25.90;14.40;;;3.40;99.90;;;;;;4993380;28;20050;-72
2023/02/07 11:36:15;;;;;;;25.75;14.98;;;3.30;99.90;;;;;;4993271;28;20038;-71
2023/02/07 11:38:54;;;;;;;25.75;14.15;;;3.40;99.90;;;;;;4994711;28;20086;-71
2023/02/07 11:41:26;;;;;;;26.30;16.40;;;3.40;99.90;;;;;;4994656;28;20038;-72
2023/02/07 11:43:55;;;;;;;28.10;14.40;;;3.50;99.90;;;;;;4992904;28;20150;-72
2023/02/07 11:46:28;;;;;;;24.83;14.68;;;3.40;99.90;;;;;;4994400;28;20054;-71
2023/02/07 11:48:57;;;;;;;31.67;14.80;;;3.50;99.90;;;;;;4994604;28;20065;-71
2023/02/07 11:51:23;;;;;;;22.13;13.18;;;3.50;99.90;;;;;;4994179;28;20597;-72
2023/02/07 11:53:54;;;;;;;27.15;15.30;;;3.80;99.90;;;;;;4992558;28;20046;-71
2023/02/07 11:56:24;;;;;;;22.98;14.25;;;4.10;99.90;;;;;;4993509;28;20422;-71
2023/02/07 11:58:51;;;;;;;22.30;13.65;;;4.20;99.90;;;;;;4994120;28;20042;-71
2023/02/07 12:01:22;;;;;;;25.13;13.63;;;4.50;99.90;;;;;;4993247;28;20376;-71
2023/02/07 12:03:54;;;;;;;22.98;14.02;;;4.60;99.90;;;;;;4993976;28;20038;-71
2023/02/07 12:06:23;;;;;;;22.35;13.73;;;4.80;99.90;;;;;;4994250;28;20059;-71
2023/02/07 12:08:51;;;;;;;26.10;14.15;;;4.90;99.90;;;;;;4992804;28;20407;-71
2023/02/07 12:11:35;;;;;;;21.77;13.02;;;5.00;99.90;;;;;;4993884;28;20030;-71
2023/02/07 12:14:28;;;;;;;26.83;14.43;;;5.10;99.90;;;;;;5014405;28;20148;-71
2023/02/07 12:16:58;;;;;;;23.02;14.30;;;5.20;99.90;;;;;;5033775;28;20050;-71
2023/02/07 12:19:30;;;;;;;31.20;14.35;;;5.30;99.90;;;;;;5032269;28;20045;-72
2023/02/07 12:22:04;;;;;;;24.30;13.80;;;5.20;99.90;;;;;;5031303;28;20045;-72
2023/02/07 12:24:50;;;;;;;22.63;13.13;;;5.30;99.90;;;;;;5031701;28;20055;-72
2023/02/07 12:27:18;;;;;;;25.30;14.73;;;5.30;99.90;;;;;;5033162;28;20061;-72
2023/02/07 12:30:10;;;;;;;23.15;14.55;;;5.40;99.90;;;;;;5032807;28;20041;-72
2023/02/07 12:32:53;;;;;;;28.23;14.75;;;5.40;99.90;;;;;;5032554;28;20045;-72
2023/02/07 12:35:37;;;;;;;22.50;13.88;;;5.30;99.90;;;;;;5032929;28;20046;-72
2023/02/07 12:38:22;;;;;;;24.73;14.20;;;5.40;99.90;;;;;;5032826;28;20094;-72
2023/02/07 12:41:14;;;;;;;26.23;14.90;;;5.40;99.90;;;;;;5031428;28;20137;-72
2023/02/07 12:44:19;;;;;;;27.40;14.18;;;5.40;99.90;;;;;;5032240;28;20094;-72
2023/02/07 12:47:12;;;;;;;22.05;13.60;;;5.40;99.90;;;;;;5031435;28;20439;-72
2023/02/07 12:49:43;;;;;;;20.00;13.43;;;5.40;99.90;;;;;;5031705;28;20444;-72
2023/02/07 12:52:54;;;;;;;24.88;14.75;;;5.30;99.90;;;;;;5030937;28;20712;-72